createdAt,value
2017-11-07T00:00:24.878Z,7.56
2017-11-07T00:01:05.464Z,7.61
2017-11-07T00:01:46.067Z,7.57
2017-11-07T00:02:26.662Z,7.57
2017-11-07T00:03:07.244Z,7.61
2017-11-07T00:03:47.831Z,7.63
2017-11-07T00:04:28.424Z,7.61
2017-11-07T00:05:09.010Z,7.6
2017-11-07T00:05:49.623Z,7.54
2017-11-07T00:06:30.241Z,7.67
2017-11-07T00:07:10.844Z,7.69
2017-11-07T00:07:51.521Z,7.61
2017-11-07T00:08:32.131Z,7.61
2017-11-07T00:09:12.716Z,7.6
2017-11-07T00:09:53.323Z,7.58
2017-11-07T00:10:33.911Z,7.58
2017-11-07T00:11:14.486Z,7.63
2017-11-07T00:11:55.087Z,7.6
2017-11-07T00:12:35.712Z,7.56
2017-11-07T00:13:16.304Z,7.61
2017-11-07T00:13:56.891Z,7.6
2017-11-07T00:14:37.472Z,7.58
2017-11-07T00:15:18.060Z,7.58
2017-11-07T00:15:58.712Z,7.6
2017-11-07T00:16:39.297Z,7.58
2017-11-07T00:17:19.893Z,7.67
2017-11-07T00:18:00.483Z,7.58
2017-11-07T00:18:41.073Z,7.63
2017-11-07T00:19:21.674Z,7.57
2017-11-07T00:20:02.282Z,7.61
2017-11-07T00:20:42.877Z,7.58
2017-11-07T00:21:23.491Z,7.57
2017-11-07T00:22:04.092Z,7.66
2017-11-07T00:22:44.703Z,7.63
2017-11-07T00:23:25.310Z,7.58
2017-11-07T00:24:05.893Z,7.58
2017-11-07T00:24:46.474Z,7.53
2017-11-07T00:25:27.040Z,7.51
2017-11-07T00:26:07.628Z,7.5
2017-11-07T00:26:48.220Z,7.5
2017-11-07T00:27:28.816Z,7.54
2017-11-07T00:28:09.408Z,7.54
2017-11-07T00:28:50.010Z,7.48
2017-11-07T00:29:30.577Z,7.48
2017-11-07T00:30:11.182Z,7.57
2017-11-07T00:30:51.750Z,7.5
2017-11-07T00:31:32.379Z,7.5
2017-11-07T00:32:12.964Z,7.54
2017-11-07T00:32:53.558Z,7.5
2017-11-07T00:33:34.142Z,7.57
2017-11-07T00:34:14.723Z,7.53
2017-11-07T00:34:55.328Z,7.47
2017-11-07T00:35:35.899Z,7.47
2017-11-07T00:36:16.494Z,7.39
2017-11-07T00:36:57.090Z,7.43
2017-11-07T00:37:37.689Z,7.48
2017-11-07T00:38:18.265Z,7.45
2017-11-07T00:38:58.872Z,7.51
2017-11-07T00:39:39.459Z,7.48
2017-11-07T00:40:20.061Z,7.39
2017-11-07T00:41:00.617Z,7.39
2017-11-07T00:41:41.201Z,7.39
2017-11-07T00:42:21.782Z,7.43
2017-11-07T00:43:02.364Z,7.45
2017-11-07T00:43:42.937Z,7.45
2017-11-07T00:44:23.516Z,7.42
2017-11-07T00:45:04.136Z,7.45
2017-11-07T00:45:44.705Z,7.42
2017-11-07T00:46:25.294Z,7.4
2017-11-07T00:47:05.873Z,7.36
2017-11-07T00:47:46.461Z,7.33
2017-11-07T00:48:27.077Z,7.4
2017-11-07T00:49:07.663Z,7.45
2017-11-07T00:49:48.245Z,7.42
2017-11-07T00:50:28.837Z,7.35
2017-11-07T00:51:09.412Z,7.42
2017-11-07T00:51:50.004Z,7.32
2017-11-07T00:52:30.593Z,7.32
2017-11-07T00:53:11.156Z,7.39
2017-11-07T00:53:51.735Z,7.35
2017-11-07T00:54:32.314Z,7.32
2017-11-07T00:55:12.896Z,7.36
2017-11-07T00:55:53.460Z,7.35
2017-11-07T00:56:34.029Z,7.31
2017-11-07T00:57:14.622Z,7.33
2017-11-07T00:57:55.214Z,7.32
2017-11-07T00:58:35.811Z,7.33
2017-11-07T00:59:16.410Z,7.31
2017-11-07T00:59:56.987Z,7.33
2017-11-07T01:00:37.570Z,7.28
2017-11-07T01:01:18.141Z,7.32
2017-11-07T01:01:58.716Z,7.25
2017-11-07T01:02:39.293Z,7.28
2017-11-07T01:03:19.889Z,7.31
2017-11-07T01:04:00.478Z,7.33
2017-11-07T01:04:41.069Z,7.35
2017-11-07T01:05:21.664Z,7.33
2017-11-07T01:06:02.237Z,7.33
2017-11-07T01:06:42.827Z,7.29
2017-11-07T01:07:23.400Z,7.21
2017-11-07T01:08:03.965Z,7.32
2017-11-07T01:08:44.567Z,7.35
2017-11-07T01:09:25.153Z,7.32
2017-11-07T01:10:05.801Z,7.25
2017-11-07T01:10:46.380Z,7.25
2017-11-07T01:11:26.962Z,7.29
2017-11-07T01:12:07.563Z,7.35
2017-11-07T01:12:48.159Z,7.32
2017-11-07T01:13:28.730Z,7.33
2017-11-07T01:14:09.340Z,7.38
2017-11-07T01:14:49.943Z,7.33
2017-11-07T01:15:30.543Z,7.32
2017-11-07T01:16:11.094Z,7.2
2017-11-07T01:16:51.689Z,7.25
2017-11-07T01:17:32.265Z,7.23
2017-11-07T01:18:12.853Z,7.29
2017-11-07T01:18:53.430Z,7.29
2017-11-07T01:19:34.015Z,7.24
2017-11-07T01:20:14.629Z,7.28
2017-11-07T01:20:55.224Z,7.33
2017-11-07T01:21:35.834Z,7.31
2017-11-07T01:22:16.444Z,7.31
2017-11-07T01:22:57.039Z,7.31
2017-11-07T01:23:37.605Z,7.28
2017-11-07T01:24:18.188Z,7.31
2017-11-07T01:24:59.883Z,7.24
2017-11-07T01:25:40.481Z,7.25
2017-11-07T01:26:21.065Z,7.28
2017-11-07T01:27:01.662Z,7.33
2017-11-07T01:27:42.247Z,7.35
2017-11-07T01:28:22.836Z,7.29
2017-11-07T01:29:03.409Z,7.36
2017-11-07T01:29:43.984Z,7.36
2017-11-07T01:30:24.575Z,7.17
2017-11-07T01:31:05.148Z,7.29
2017-11-07T01:31:45.751Z,7.2
2017-11-07T01:32:26.364Z,7.2
2017-11-07T01:33:06.944Z,7.17
2017-11-07T01:33:47.536Z,7.17
2017-11-07T01:34:28.124Z,7.2
2017-11-07T01:35:08.703Z,7.2
2017-11-07T01:35:49.269Z,7.18
2017-11-07T01:36:29.876Z,7.24
2017-11-07T01:37:10.437Z,7.24
2017-11-07T01:37:51.049Z,7.21
2017-11-07T01:38:31.618Z,7.21
2017-11-07T01:39:12.194Z,7.21
2017-11-07T01:39:52.775Z,7.17
2017-11-07T01:40:33.343Z,7.17
2017-11-07T01:41:13.913Z,7.21
2017-11-07T01:41:54.520Z,7.21
2017-11-07T01:42:35.115Z,7.18
2017-11-07T01:43:15.688Z,7.24
2017-11-07T01:43:56.272Z,7.21
2017-11-07T01:44:36.838Z,7.2
2017-11-07T01:45:17.401Z,7.23
2017-11-07T01:45:57.994Z,7.13
2017-11-07T01:46:38.567Z,7.2
2017-11-07T01:47:19.159Z,7.14
2017-11-07T01:47:59.735Z,7.21
2017-11-07T01:48:40.311Z,7.2
2017-11-07T01:49:20.893Z,7.18
2017-11-07T01:50:01.469Z,7.17
2017-11-07T01:50:42.039Z,7.15
2017-11-07T01:51:22.631Z,7.2
2017-11-07T01:52:03.214Z,7.14
2017-11-07T01:52:43.787Z,7.07
2017-11-07T01:53:24.365Z,7.2
2017-11-07T01:54:04.941Z,7.18
2017-11-07T01:54:45.548Z,7.15
2017-11-07T01:55:26.146Z,7.18
2017-11-07T01:56:06.710Z,7.18
2017-11-07T01:56:47.295Z,7.14
2017-11-07T01:57:27.872Z,7.18
2017-11-07T01:58:08.446Z,7.17
2017-11-07T01:58:49.027Z,7.14
2017-11-07T01:59:29.613Z,7.15
2017-11-07T02:00:10.176Z,7.2
2017-11-07T02:00:50.754Z,7.14
2017-11-07T02:01:31.362Z,7.15
2017-11-07T02:02:11.928Z,7.14
2017-11-07T02:02:52.496Z,7.18
2017-11-07T02:03:33.088Z,7.14
2017-11-07T02:04:13.644Z,7.11
2017-11-07T02:04:54.227Z,7.14
2017-11-07T02:05:34.808Z,7.14
2017-11-07T02:06:15.381Z,7.17
2017-11-07T02:06:55.956Z,7.15
2017-11-07T02:07:36.544Z,7.15
2017-11-07T02:08:17.122Z,7.11
2017-11-07T02:08:57.711Z,7.18
2017-11-07T02:09:38.278Z,7.23
2017-11-07T02:10:18.862Z,7.18
2017-11-07T02:10:59.431Z,7.18
2017-11-07T02:11:40.140Z,7.2
2017-11-07T02:12:20.696Z,7.2
2017-11-07T02:13:01.306Z,7.18
2017-11-07T02:13:41.895Z,7.17
2017-11-07T02:14:22.474Z,7.17
2017-11-07T02:15:03.045Z,7.17
2017-11-07T02:15:43.644Z,7.14
2017-11-07T02:16:24.231Z,7.15
2017-11-07T02:17:04.797Z,7.13
2017-11-07T02:17:45.375Z,7.06
2017-11-07T02:18:25.981Z,7.14
2017-11-07T02:19:06.572Z,7.14
2017-11-07T02:19:47.151Z,7.14
2017-11-07T02:20:27.725Z,7.11
2017-11-07T02:21:08.298Z,7.13
2017-11-07T02:21:48.868Z,7.06
2017-11-07T02:22:29.466Z,7.1
2017-11-07T02:23:10.046Z,7.05
2017-11-07T02:23:50.621Z,7.11
2017-11-07T02:24:31.253Z,7.07
2017-11-07T02:25:11.855Z,7.07
2017-11-07T02:25:52.470Z,7.13
2017-11-07T02:26:33.065Z,7.11
2017-11-07T02:27:13.654Z,7.02
2017-11-07T02:27:54.245Z,7.07
2017-11-07T02:28:34.816Z,7.03
2017-11-07T02:29:15.395Z,7.05
2017-11-07T02:29:55.945Z,7.05
2017-11-07T02:30:36.514Z,7.14
2017-11-07T02:31:17.089Z,7.06
2017-11-07T02:31:57.679Z,7.11
2017-11-07T02:32:38.241Z,7.11
2017-11-07T02:33:18.836Z,7.05
2017-11-07T02:33:59.440Z,7.07
2017-11-07T02:34:40.002Z,7.05
2017-11-07T02:35:20.593Z,7.06
2017-11-07T02:36:01.174Z,7.05
2017-11-07T02:36:41.810Z,7.1
2017-11-07T02:37:22.395Z,7.02
2017-11-07T02:38:02.984Z,7.05
2017-11-07T02:38:43.555Z,7.06
2017-11-07T02:39:24.124Z,7.05
2017-11-07T02:40:04.706Z,7.06
2017-11-07T02:40:45.351Z,7.07
2017-11-07T02:41:25.965Z,7.14
2017-11-07T02:42:06.564Z,7.1
2017-11-07T02:42:47.151Z,7.05
2017-11-07T02:43:27.727Z,7
2017-11-07T02:44:08.309Z,7.03
2017-11-07T02:44:48.882Z,7
2017-11-07T02:45:29.482Z,7.03
2017-11-07T02:46:10.073Z,7.1
2017-11-07T02:46:50.668Z,7.07
2017-11-07T02:47:31.252Z,7.07
2017-11-07T02:48:11.819Z,7.06
2017-11-07T02:48:52.434Z,7.03
2017-11-07T02:49:33.035Z,7.06
2017-11-07T02:50:13.614Z,7.06
2017-11-07T02:50:54.181Z,6.97
2017-11-07T02:51:34.765Z,7.05
2017-11-07T02:52:15.347Z,6.99
2017-11-07T02:52:55.914Z,6.97
2017-11-07T02:53:36.492Z,6.99
2017-11-07T02:54:17.074Z,6.96
2017-11-07T02:54:57.650Z,6.97
2017-11-07T02:55:38.278Z,7
2017-11-07T02:56:18.856Z,7.02
2017-11-07T02:56:59.439Z,6.96
2017-11-07T02:57:40.021Z,7.03
2017-11-07T02:58:20.599Z,6.97
2017-11-07T02:59:01.175Z,6.97
2017-11-07T02:59:41.762Z,7.02
2017-11-07T03:00:22.370Z,7
2017-11-07T03:01:02.966Z,7.02
2017-11-07T03:01:43.559Z,6.89
2017-11-07T03:02:24.133Z,6.96
2017-11-07T03:03:04.698Z,6.99
2017-11-07T03:03:45.285Z,6.96
2017-11-07T03:04:25.866Z,6.97
2017-11-07T03:05:06.569Z,6.89
2017-11-07T03:05:47.163Z,6.96
2017-11-07T03:06:27.744Z,6.97
2017-11-07T03:07:08.343Z,6.95
2017-11-07T03:07:48.961Z,6.88
2017-11-07T03:08:29.524Z,6.93
2017-11-07T03:09:10.083Z,6.93
2017-11-07T03:09:50.668Z,6.92
2017-11-07T03:10:31.259Z,6.96
2017-11-07T03:11:11.872Z,7.02
2017-11-07T03:11:52.439Z,6.99
2017-11-07T03:12:33.031Z,6.99
2017-11-07T03:13:13.607Z,6.89
2017-11-07T03:13:54.179Z,6.88
2017-11-07T03:14:34.739Z,6.88
2017-11-07T03:15:15.317Z,7
2017-11-07T03:15:55.917Z,6.89
2017-11-07T03:16:36.523Z,6.99
2017-11-07T03:17:17.099Z,7
2017-11-07T03:17:57.668Z,6.97
2017-11-07T03:18:38.234Z,6.95
2017-11-07T03:19:18.815Z,7
2017-11-07T03:19:59.435Z,7
2017-11-07T03:20:40.019Z,7
2017-11-07T03:21:20.590Z,6.95
2017-11-07T03:22:01.180Z,7
2017-11-07T03:22:41.754Z,6.96
2017-11-07T03:23:22.329Z,6.99
2017-11-07T03:24:02.893Z,6.96
2017-11-07T03:24:43.513Z,6.99
2017-11-07T03:25:24.075Z,7
2017-11-07T03:26:04.650Z,7
2017-11-07T03:26:45.216Z,6.97
2017-11-07T03:27:25.802Z,7.05
2017-11-07T03:28:06.378Z,6.93
2017-11-07T03:28:47.004Z,7
2017-11-07T03:29:27.607Z,7.02
2017-11-07T03:30:08.183Z,6.93
2017-11-07T03:30:49.727Z,7
2017-11-07T03:31:30.335Z,6.88
2017-11-07T03:32:10.914Z,6.95
2017-11-07T03:32:51.494Z,6.88
2017-11-07T03:33:32.066Z,6.88
2017-11-07T03:34:12.641Z,6.88
2017-11-07T03:34:53.225Z,6.88
2017-11-07T03:35:33.812Z,6.87
2017-11-07T03:36:14.387Z,6.93
2017-11-07T03:36:54.975Z,6.88
2017-11-07T03:37:35.570Z,6.85
2017-11-07T03:38:16.149Z,6.92
2017-11-07T03:38:56.716Z,6.85
2017-11-07T03:39:37.291Z,6.95
2017-11-07T03:40:17.888Z,6.93
2017-11-07T03:40:58.457Z,6.92
2017-11-07T03:41:39.023Z,6.92
2017-11-07T03:42:19.653Z,6.87
2017-11-07T03:43:00.241Z,6.93
2017-11-07T03:43:40.815Z,6.85
2017-11-07T03:44:21.435Z,6.82
2017-11-07T03:45:02.046Z,6.85
2017-11-07T03:45:42.632Z,6.81
2017-11-07T03:46:23.218Z,6.82
2017-11-07T03:47:03.805Z,6.79
2017-11-07T03:47:44.378Z,6.81
2017-11-07T03:48:24.967Z,6.96
2017-11-07T03:49:05.546Z,6.81
2017-11-07T03:49:46.136Z,6.84
2017-11-07T03:50:26.724Z,6.81
2017-11-07T03:51:07.317Z,6.81
2017-11-07T03:51:48.451Z,6.81
2017-11-07T03:52:29.029Z,6.81
2017-11-07T03:53:09.629Z,6.77
2017-11-07T03:53:50.224Z,6.82
2017-11-07T03:54:30.794Z,6.82
2017-11-07T03:55:11.360Z,6.79
2017-11-07T03:55:51.942Z,6.81
2017-11-07T03:56:32.570Z,6.77
2017-11-07T03:57:13.122Z,6.77
2017-11-07T03:57:53.707Z,6.75
2017-11-07T03:58:34.301Z,6.75
2017-11-07T03:59:14.870Z,6.78
2017-11-07T03:59:55.451Z,6.84
2017-11-07T04:00:36.027Z,6.79
2017-11-07T04:01:16.593Z,6.77
2017-11-07T04:01:57.187Z,6.74
2017-11-07T04:02:37.798Z,6.78
2017-11-07T04:03:18.371Z,6.77
2017-11-07T04:03:58.938Z,6.81
2017-11-07T04:04:39.533Z,6.79
2017-11-07T04:05:20.123Z,6.74
2017-11-07T04:06:00.687Z,6.78
2017-11-07T04:06:41.302Z,6.77
2017-11-07T04:07:21.885Z,6.74
2017-11-07T04:08:02.528Z,6.79
2017-11-07T04:08:43.151Z,6.75
2017-11-07T04:09:23.723Z,6.7
2017-11-07T04:10:04.298Z,6.64
2017-11-07T04:10:44.885Z,6.69
2017-11-07T04:11:25.463Z,6.78
2017-11-07T04:12:06.032Z,6.7
2017-11-07T04:12:46.622Z,6.79
2017-11-07T04:13:27.212Z,6.78
2017-11-07T04:14:07.813Z,6.78
2017-11-07T04:14:48.370Z,6.7
2017-11-07T04:15:28.957Z,6.69
2017-11-07T04:16:09.541Z,6.67
2017-11-07T04:16:50.102Z,6.72
2017-11-07T04:17:30.680Z,6.64
2017-11-07T04:18:11.370Z,6.7
2017-11-07T04:18:51.938Z,6.77
2017-11-07T04:19:32.570Z,6.75
2017-11-07T04:20:13.162Z,6.75
2017-11-07T04:20:53.734Z,6.69
2017-11-07T04:21:34.302Z,6.7
2017-11-07T04:22:14.921Z,6.69
2017-11-07T04:22:55.487Z,6.77
2017-11-07T04:23:36.081Z,6.7
2017-11-07T04:24:16.677Z,6.67
2017-11-07T04:24:57.274Z,6.72
2017-11-07T04:25:37.844Z,6.77
2017-11-07T04:26:18.431Z,6.64
2017-11-07T04:26:59.010Z,6.7
2017-11-07T04:27:39.595Z,6.7
2017-11-07T04:28:20.182Z,6.67
2017-11-07T04:29:00.756Z,6.67
2017-11-07T04:29:41.336Z,6.74
2017-11-07T04:30:21.941Z,6.59
2017-11-07T04:31:02.522Z,6.63
2017-11-07T04:31:43.107Z,6.67
2017-11-07T04:32:23.675Z,6.6
2017-11-07T04:33:04.312Z,6.6
2017-11-07T04:33:44.899Z,6.57
2017-11-07T04:34:25.498Z,6.63
2017-11-07T04:35:06.105Z,6.63
2017-11-07T04:35:46.690Z,6.59
2017-11-07T04:36:27.289Z,6.62
2017-11-07T04:37:07.891Z,6.56
2017-11-07T04:37:48.460Z,6.59
2017-11-07T04:38:29.047Z,6.64
2017-11-07T04:39:09.634Z,6.54
2017-11-07T04:39:50.217Z,6.54
2017-11-07T04:40:30.803Z,6.52
2017-11-07T04:41:11.380Z,6.59
2017-11-07T04:41:51.976Z,6.59
2017-11-07T04:42:32.554Z,6.46
2017-11-07T04:43:13.136Z,6.57
2017-11-07T04:43:53.725Z,6.56
2017-11-07T04:44:34.340Z,6.56
2017-11-07T04:45:14.898Z,6.49
2017-11-07T04:45:55.501Z,6.59
2017-11-07T04:46:36.118Z,6.51
2017-11-07T04:47:16.729Z,6.48
2017-11-07T04:47:57.309Z,6.51
2017-11-07T04:48:37.878Z,6.56
2017-11-07T04:49:18.462Z,6.62
2017-11-07T04:49:59.058Z,6.56
2017-11-07T04:50:39.667Z,6.51
2017-11-07T04:51:20.268Z,6.51
2017-11-07T04:52:00.838Z,6.51
2017-11-07T04:52:41.438Z,6.52
2017-11-07T04:53:22.023Z,6.51
2017-11-07T04:54:02.631Z,6.48
2017-11-07T04:54:43.221Z,6.48
2017-11-07T04:55:23.793Z,6.48
2017-11-07T04:56:04.376Z,6.57
2017-11-07T04:56:44.985Z,6.48
2017-11-07T04:57:25.563Z,6.49
2017-11-07T04:58:06.136Z,6.46
2017-11-07T04:58:46.707Z,6.45
2017-11-07T04:59:27.311Z,6.51
2017-11-07T05:00:07.881Z,6.56
2017-11-07T05:00:48.493Z,6.54
2017-11-07T05:01:29.083Z,6.45
2017-11-07T05:02:09.711Z,6.46
2017-11-07T05:02:50.265Z,6.46
2017-11-07T05:03:30.848Z,6.41
2017-11-07T05:04:11.470Z,6.44
2017-11-07T05:04:52.026Z,6.41
2017-11-07T05:05:32.610Z,6.39
2017-11-07T05:06:13.205Z,6.48
2017-11-07T05:06:53.767Z,6.44
2017-11-07T05:07:34.334Z,6.42
2017-11-07T05:08:14.923Z,6.49
2017-11-07T05:08:55.518Z,6.45
2017-11-07T05:09:36.083Z,6.44
2017-11-07T05:10:16.663Z,6.42
2017-11-07T05:10:57.274Z,6.31
2017-11-07T05:11:37.868Z,6.45
2017-11-07T05:12:18.461Z,6.41
2017-11-07T05:12:59.046Z,6.38
2017-11-07T05:13:39.620Z,6.39
2017-11-07T05:14:20.184Z,6.46
2017-11-07T05:15:00.804Z,6.45
2017-11-07T05:15:41.409Z,6.33
2017-11-07T05:16:21.977Z,6.46
2017-11-07T05:17:02.563Z,6.45
2017-11-07T05:17:43.151Z,6.56
2017-11-07T05:18:23.757Z,6.45
2017-11-07T05:19:04.302Z,6.45
2017-11-07T05:19:44.856Z,6.48
2017-11-07T05:20:25.445Z,6.44
2017-11-07T05:21:06.059Z,6.42
2017-11-07T05:21:46.648Z,6.54
2017-11-07T05:22:27.279Z,6.49
2017-11-07T05:23:07.855Z,6.46
2017-11-07T05:23:48.441Z,6.39
2017-11-07T05:24:29.023Z,6.46
2017-11-07T05:25:09.614Z,6.41
2017-11-07T05:25:50.195Z,6.44
2017-11-07T05:26:30.778Z,6.45
2017-11-07T05:27:11.479Z,6.46
2017-11-07T05:27:52.067Z,6.44
2017-11-07T05:28:32.642Z,6.46
2017-11-07T05:29:13.244Z,6.45
2017-11-07T05:29:53.839Z,6.42
2017-11-07T05:30:34.430Z,6.48
2017-11-07T05:31:15.016Z,6.46
2017-11-07T05:31:55.632Z,6.46
2017-11-07T05:32:36.219Z,6.42
2017-11-07T05:33:16.802Z,6.49
2017-11-07T05:33:57.372Z,6.42
2017-11-07T05:34:38.002Z,6.46
2017-11-07T05:35:18.601Z,6.46
2017-11-07T05:35:59.209Z,6.49
2017-11-07T05:36:39.776Z,6.46
2017-11-07T05:37:20.355Z,6.45
2017-11-07T05:38:00.922Z,6.46
2017-11-07T05:38:41.497Z,6.44
2017-11-07T05:39:22.085Z,6.45
2017-11-07T05:40:02.658Z,6.45
2017-11-07T05:40:43.276Z,6.46
2017-11-07T05:41:23.842Z,6.51
2017-11-07T05:42:04.411Z,6.42
2017-11-07T05:42:44.988Z,6.35
2017-11-07T05:43:25.560Z,6.42
2017-11-07T05:44:06.136Z,6.42
2017-11-07T05:44:46.707Z,6.41
2017-11-07T05:45:27.310Z,6.39
2017-11-07T05:46:07.889Z,6.44
2017-11-07T05:46:48.510Z,6.46
2017-11-07T05:47:29.099Z,6.33
2017-11-07T05:48:09.692Z,6.41
2017-11-07T05:48:50.271Z,6.39
2017-11-07T05:49:30.855Z,6.42
2017-11-07T05:50:11.447Z,6.35
2017-11-07T05:50:52.026Z,6.41
2017-11-07T05:51:32.615Z,6.45
2017-11-07T05:52:13.216Z,6.51
2017-11-07T05:52:53.779Z,6.49
2017-11-07T05:53:34.423Z,6.44
2017-11-07T05:54:15.016Z,6.59
2017-11-07T05:54:55.638Z,6.44
2017-11-07T05:55:36.247Z,6.48
2017-11-07T05:56:16.830Z,6.51
2017-11-07T05:56:57.426Z,6.48
2017-11-07T05:57:38.015Z,6.54
2017-11-07T05:58:18.666Z,6.51
2017-11-07T05:58:59.263Z,6.46
2017-11-07T05:59:39.847Z,6.59
2017-11-07T06:00:20.427Z,6.44
2017-11-07T06:01:01.039Z,6.52
2017-11-07T06:01:41.612Z,6.51
2017-11-07T06:02:22.193Z,6.54
2017-11-07T06:03:02.861Z,6.51
2017-11-07T06:03:43.436Z,6.51
2017-11-07T06:04:24.039Z,6.56
2017-11-07T06:05:04.568Z,6.48
2017-11-07T06:05:45.149Z,6.51
2017-11-07T06:06:25.740Z,6.45
2017-11-07T06:07:06.310Z,6.52
2017-11-07T06:07:46.894Z,6.48
2017-11-07T06:08:27.476Z,6.48
2017-11-07T06:09:08.076Z,6.48
2017-11-07T06:09:48.649Z,6.46
2017-11-07T06:10:29.227Z,6.42
2017-11-07T06:11:09.819Z,6.48
2017-11-07T06:11:50.418Z,6.46
2017-11-07T06:12:30.995Z,6.41
2017-11-07T06:13:11.597Z,6.45
2017-11-07T06:13:52.214Z,6.44
2017-11-07T06:14:32.811Z,6.35
2017-11-07T06:15:13.419Z,6.39
2017-11-07T06:15:53.987Z,6.48
2017-11-07T06:16:34.578Z,6.38
2017-11-07T06:18:47.901Z,6.44
2017-11-07T06:19:28.476Z,6.49
2017-11-07T06:20:09.062Z,6.7
2017-11-07T06:20:49.633Z,7.07
2017-11-07T06:21:30.208Z,7.45
2017-11-07T06:22:10.768Z,7.57
2017-11-07T06:22:51.363Z,7.85
2017-11-07T06:23:31.943Z,8.15
2017-11-07T06:24:12.519Z,8.42
2017-11-07T06:24:53.104Z,8.66
2017-11-07T06:25:33.675Z,8.73
2017-11-07T06:26:14.249Z,8.92
2017-11-07T06:26:54.797Z,9.11
2017-11-07T06:27:35.366Z,9.22
2017-11-07T06:28:15.934Z,9.39
2017-11-07T06:28:56.557Z,9.5
2017-11-07T06:29:37.115Z,9.62
2017-11-07T06:30:17.686Z,9.72
2017-11-07T06:30:58.280Z,9.83
2017-11-07T06:31:38.870Z,9.8
2017-11-07T06:32:19.446Z,9.94
2017-11-07T06:33:00.035Z,9.94
2017-11-07T06:33:40.615Z,9.89
2017-11-07T06:34:21.198Z,9.74
2017-11-07T06:35:01.788Z,9.59
2017-11-07T06:35:42.377Z,9.47
2017-11-07T06:36:23.325Z,9.29
2017-11-07T06:37:03.837Z,9.06
2017-11-07T06:37:44.437Z,8.89
2017-11-07T06:38:25.005Z,8.79
2017-11-07T06:39:05.609Z,8.69
2017-11-07T06:39:46.431Z,8.41
2017-11-07T06:40:27.007Z,8.36
2017-11-07T06:41:07.607Z,8.31
2017-11-07T06:41:48.258Z,8.13
2017-11-07T06:42:28.774Z,8.06
2017-11-07T06:43:09.378Z,7.91
2017-11-07T06:43:49.945Z,7.94
2017-11-07T06:44:30.540Z,7.87
2017-11-07T06:45:11.113Z,7.75
2017-11-07T06:45:51.687Z,7.63
2017-11-07T06:46:32.266Z,7.51
2017-11-07T06:47:12.838Z,7.43
2017-11-07T06:47:53.410Z,7.4
2017-11-07T06:48:34.008Z,7.33
2017-11-07T06:49:14.584Z,7.28
2017-11-07T06:49:55.262Z,7.25
2017-11-07T06:50:35.840Z,7.24
2017-11-07T06:51:16.417Z,7.29
2017-11-07T06:51:57.008Z,7.23
2017-11-07T06:52:37.583Z,7.14
2017-11-07T06:53:18.208Z,7.06
2017-11-07T06:53:58.787Z,7.06
2017-11-07T06:54:39.367Z,7.11
2017-11-07T06:55:19.977Z,7
2017-11-07T06:56:00.552Z,7
2017-11-07T06:56:41.225Z,7.05
2017-11-07T06:57:21.793Z,7
2017-11-07T06:58:02.430Z,6.93
2017-11-07T06:58:42.996Z,6.89
2017-11-07T06:59:23.603Z,6.96
2017-11-07T07:00:04.176Z,6.84
2017-11-07T07:00:44.753Z,6.84
2017-11-07T07:01:25.379Z,6.92
2017-11-07T07:02:05.978Z,6.79
2017-11-07T07:02:46.633Z,6.85
2017-11-07T07:03:27.266Z,6.88
2017-11-07T07:04:07.852Z,6.79
2017-11-07T07:04:48.455Z,6.79
2017-11-07T07:05:29.022Z,6.87
2017-11-07T07:06:09.615Z,6.87
2017-11-07T07:06:50.186Z,6.78
2017-11-07T07:07:30.771Z,6.78
2017-11-07T07:08:11.740Z,6.77
2017-11-07T07:08:52.328Z,6.75
2017-11-07T07:09:32.960Z,6.84
2017-11-07T07:10:13.521Z,6.69
2017-11-07T07:10:54.110Z,6.75
2017-11-07T07:11:34.760Z,6.7
2017-11-07T07:12:15.360Z,6.75
2017-11-07T07:12:55.962Z,6.67
2017-11-07T07:13:36.564Z,6.67
2017-11-07T07:14:17.137Z,6.72
2017-11-07T07:14:57.742Z,6.7
2017-11-07T07:15:38.338Z,6.77
2017-11-07T07:16:19.169Z,6.66
2017-11-07T07:16:59.844Z,6.72
2017-11-07T07:17:40.416Z,6.67
2017-11-07T07:18:21.006Z,6.72
2017-11-07T07:19:01.580Z,6.79
2017-11-07T07:19:42.156Z,6.79
2017-11-07T07:20:23.001Z,6.74
2017-11-07T07:21:03.592Z,6.69
2017-11-07T07:21:44.245Z,6.75
2017-11-07T07:22:24.900Z,6.77
2017-11-07T07:23:05.516Z,6.7
2017-11-07T07:23:46.112Z,6.7
2017-11-07T07:24:26.692Z,6.63
2017-11-07T07:25:07.332Z,6.57
2017-11-07T07:25:47.978Z,6.62
2017-11-07T07:26:28.613Z,6.63
2017-11-07T07:27:09.177Z,6.63
2017-11-07T07:27:49.785Z,6.59
2017-11-07T07:28:30.402Z,6.72
2017-11-07T07:29:10.972Z,6.72
2017-11-07T07:29:51.551Z,6.67
2017-11-07T07:30:32.185Z,6.7
2017-11-07T07:31:12.788Z,6.72
2017-11-07T07:31:53.614Z,6.7
2017-11-07T07:32:34.207Z,6.74
2017-11-07T07:33:14.808Z,6.62
2017-11-07T07:33:55.373Z,6.72
2017-11-07T07:34:36.069Z,6.7
2017-11-07T07:35:16.649Z,6.7
2017-11-07T07:35:57.247Z,6.64
2017-11-07T07:36:37.848Z,6.77
2017-11-07T07:37:18.416Z,6.72
2017-11-07T07:37:59.027Z,6.81
2017-11-07T07:38:39.622Z,6.72
2017-11-07T07:39:20.213Z,6.72
2017-11-07T07:40:00.787Z,6.75
2017-11-07T07:40:41.360Z,6.7
2017-11-07T07:41:21.942Z,6.74
2017-11-07T07:42:02.502Z,6.78
2017-11-07T07:42:43.073Z,6.7
2017-11-07T07:43:23.673Z,6.78
2017-11-07T07:44:04.268Z,6.66
2017-11-07T07:44:44.829Z,6.69
2017-11-07T07:45:25.516Z,6.74
2017-11-07T07:46:06.099Z,6.67
2017-11-07T07:46:46.667Z,6.69
2017-11-07T07:47:27.268Z,6.75
2017-11-07T07:48:07.852Z,6.7
2017-11-07T07:48:48.463Z,6.69
2017-11-07T07:49:29.092Z,6.7
2017-11-07T07:50:09.678Z,6.72
2017-11-07T07:50:50.262Z,6.69
2017-11-07T07:51:30.843Z,6.74
2017-11-07T07:52:11.427Z,6.74
2017-11-07T07:52:52.038Z,6.82
2017-11-07T07:53:32.624Z,6.79
2017-11-07T07:54:13.185Z,6.78
2017-11-07T07:54:53.775Z,6.79
2017-11-07T07:55:34.347Z,6.81
2017-11-07T07:56:14.936Z,6.85
2017-11-07T07:56:55.527Z,6.85
2017-11-07T07:57:36.127Z,6.87
2017-11-07T07:58:16.702Z,6.87
2017-11-07T07:58:57.312Z,6.82
2017-11-07T07:59:37.888Z,6.88
2017-11-07T08:00:18.477Z,6.92
2017-11-07T08:00:59.045Z,6.97
2017-11-07T08:01:39.657Z,6.96
2017-11-07T08:02:20.278Z,7
2017-11-07T08:03:00.847Z,6.99
2017-11-07T08:03:41.437Z,6.99
2017-11-07T08:04:22.018Z,7.05
2017-11-07T08:05:02.576Z,7.1
2017-11-07T08:05:43.174Z,7.1
2017-11-07T08:06:23.773Z,7.13
2017-11-07T08:07:04.372Z,7.21
2017-11-07T08:07:44.972Z,7.33
2017-11-07T08:08:25.569Z,7.35
2017-11-07T08:09:06.128Z,7.33
2017-11-07T08:09:46.735Z,7.5
2017-11-07T08:10:27.347Z,7.66
2017-11-07T08:11:07.933Z,7.8
2017-11-07T08:11:48.507Z,8.01
2017-11-07T08:12:29.073Z,8.26
2017-11-07T08:13:09.653Z,8.49
2017-11-07T08:13:50.229Z,8.88
2017-11-07T08:14:30.827Z,9.14
2017-11-07T08:15:11.480Z,9.48
2017-11-07T08:15:52.074Z,9.74
2017-11-07T08:16:32.641Z,10.04
2017-11-07T08:17:13.213Z,10.33
2017-11-07T08:17:53.789Z,10.59
2017-11-07T08:18:34.406Z,10.81
2017-11-07T08:19:14.983Z,10.93
2017-11-07T08:19:55.613Z,11.19
2017-11-07T08:20:36.155Z,11.35
2017-11-07T08:21:16.944Z,11.45
2017-11-07T08:21:57.533Z,11.62
2017-11-07T08:22:38.096Z,11.68
2017-11-07T08:23:18.681Z,11.73
2017-11-07T08:23:59.291Z,11.77
2017-11-07T08:24:39.869Z,11.81
2017-11-07T08:25:20.449Z,11.77
2017-11-07T08:26:01.049Z,11.8
2017-11-07T08:26:41.624Z,11.83
2017-11-07T08:27:22.266Z,11.88
2017-11-07T08:28:02.846Z,11.91
2017-11-07T08:28:43.452Z,12.02
2017-11-07T08:29:24.032Z,12
2017-11-07T08:30:04.633Z,12.02
2017-11-07T08:30:45.235Z,11.99
2017-11-07T08:31:25.825Z,11.97
2017-11-07T08:32:06.518Z,12
2017-11-07T08:32:47.132Z,12.07
2017-11-07T08:33:27.724Z,11.99
2017-11-07T08:34:08.336Z,11.87
2017-11-07T08:34:48.932Z,11.91
2017-11-07T08:35:29.565Z,11.81
2017-11-07T08:36:10.189Z,11.83
2017-11-07T08:36:50.786Z,11.83
2017-11-07T08:37:31.380Z,11.72
2017-11-07T08:38:11.948Z,11.66
2017-11-07T08:38:52.582Z,11.66
2017-11-07T08:39:33.153Z,11.63
2017-11-07T08:40:13.725Z,11.63
2017-11-07T08:40:54.342Z,11.65
2017-11-07T08:41:34.992Z,11.77
2017-11-07T08:42:15.591Z,11.75
2017-11-07T08:42:56.171Z,11.69
2017-11-07T08:43:36.753Z,11.63
2017-11-07T08:44:17.331Z,11.66
2017-11-07T08:44:57.955Z,11.63
2017-11-07T08:45:38.493Z,11.62
2017-11-07T08:46:19.120Z,11.59
2017-11-07T08:46:59.695Z,11.51
2017-11-07T08:47:40.299Z,11.62
2017-11-07T08:48:20.890Z,11.66
2017-11-07T08:49:01.489Z,11.65
2017-11-07T08:49:42.067Z,11.68
2017-11-07T08:50:22.654Z,11.75
2017-11-07T08:51:03.245Z,11.73
2017-11-07T08:51:43.900Z,11.69
2017-11-07T08:52:24.521Z,11.65
2017-11-07T08:53:05.108Z,11.6
2017-11-07T08:53:45.721Z,11.57
2017-11-07T08:54:26.286Z,11.57
2017-11-07T08:55:07.064Z,11.52
2017-11-07T08:55:47.632Z,11.51
2017-11-07T08:56:28.230Z,11.47
2017-11-07T08:57:08.814Z,11.5
2017-11-07T08:57:49.541Z,11.44
2017-11-07T08:58:30.090Z,11.47
2017-11-07T08:59:10.672Z,11.54
2017-11-07T08:59:51.289Z,11.48
2017-11-07T09:00:31.867Z,11.5
2017-11-07T09:01:12.452Z,11.37
2017-11-07T09:01:53.040Z,11.44
2017-11-07T09:02:33.909Z,11.41
2017-11-07T09:03:14.491Z,11.43